createdAt,value
2023-05-19T00:01:57.450Z,9.90
2023-05-19T00:04:40.645Z,9.90
2023-05-19T00:07:28.697Z,9.80
2023-05-19T00:10:11.659Z,9.80
2023-05-19T00:12:54.416Z,9.80
2023-05-19T00:15:37.071Z,9.70
2023-05-19T00:18:20.717Z,9.70
2023-05-19T00:21:02.948Z,9.80
2023-05-19T00:23:45.741Z,9.80
2023-05-19T00:26:28.153Z,9.70
2023-05-19T00:29:18.741Z,9.80
2023-05-19T00:32:01.735Z,9.70
2023-05-19T00:34:44.380Z,9.70
2023-05-19T00:37:26.938Z,9.70
2023-05-19T00:40:10.916Z,9.70
2023-05-19T00:42:53.255Z,9.70
2023-05-19T00:45:35.957Z,9.70
2023-05-19T00:48:18.542Z,9.70
2023-05-19T00:51:04.720Z,9.70
2023-05-19T00:53:49.481Z,9.80
2023-05-19T00:56:32.542Z,9.70
2023-05-19T00:59:17.033Z,9.70
2023-05-19T01:01:59.676Z,9.80
2023-05-19T01:04:43.937Z,9.70
2023-05-19T01:07:27.392Z,9.70
2023-05-19T01:10:10.592Z,9.70
2023-05-19T01:12:53.161Z,9.70
2023-05-19T01:15:52.310Z,9.70
2023-05-19T01:19:02.041Z,9.70
2023-05-19T01:22:13.231Z,9.70
2023-05-19T01:25:15.089Z,9.70
2023-05-19T01:28:21.913Z,9.70
2023-05-19T01:31:07.482Z,9.70
2023-05-19T01:33:51.765Z,9.60
2023-05-19T01:36:34.718Z,9.60
2023-05-19T01:39:17.399Z,9.60
2023-05-19T01:42:00.782Z,9.60
2023-05-19T01:44:44.267Z,9.50
2023-05-19T01:47:27.029Z,9.50
2023-05-19T01:50:09.968Z,9.60
2023-05-19T01:52:52.849Z,9.50
2023-05-19T01:55:48.194Z,9.50
2023-05-19T01:58:40.137Z,9.50
2023-05-19T02:01:28.751Z,9.50
2023-05-19T02:04:56.138Z,9.50
2023-05-19T02:07:45.886Z,9.40
2023-05-19T02:10:33.014Z,9.40
2023-05-19T02:13:18.884Z,9.40
2023-05-19T02:16:04.479Z,9.40
2023-05-19T02:18:48.094Z,9.40
2023-05-19T02:21:31.229Z,9.40
2023-05-19T02:24:13.422Z,9.40
2023-05-19T02:26:55.975Z,9.40
2023-05-19T02:29:38.159Z,9.40
2023-05-19T02:32:21.827Z,9.30
2023-05-19T02:35:04.977Z,9.30
2023-05-19T02:37:47.453Z,9.30
2023-05-19T02:40:30.467Z,9.30
2023-05-19T02:43:13.351Z,9.30
2023-05-19T02:45:56.003Z,9.20
2023-05-19T02:48:38.464Z,9.20
2023-05-19T02:51:20.754Z,9.30
2023-05-19T02:54:03.248Z,9.30
2023-05-19T02:56:45.529Z,9.20
2023-05-19T02:59:28.103Z,9.20
2023-05-19T03:02:10.547Z,9.20
2023-05-19T03:04:53.280Z,9.20
2023-05-19T03:07:35.456Z,9.20
2023-05-19T03:10:17.994Z,9.20
2023-05-19T03:13:00.293Z,9.30
2023-05-19T03:15:43.226Z,9.30
2023-05-19T03:18:26.881Z,9.20
2023-05-19T03:21:09.537Z,9.20
2023-05-19T03:23:51.751Z,9.30
2023-05-19T03:26:34.431Z,9.30
2023-05-19T03:29:16.768Z,9.30
2023-05-19T03:32:00.047Z,9.30
2023-05-19T03:34:42.462Z,9.30
2023-05-19T03:37:25.062Z,9.30
2023-05-19T03:40:08.614Z,9.30
2023-05-19T03:42:54.484Z,9.30
2023-05-19T03:45:36.692Z,9.30
2023-05-19T03:48:32.627Z,9.40
2023-05-19T03:51:37.948Z,9.40
2023-05-19T03:54:36.172Z,9.40
2023-05-19T03:57:18.467Z,9.40
2023-05-19T04:00:04.125Z,9.40
2023-05-19T04:02:54.491Z,9.40
2023-05-19T04:05:37.323Z,9.40
2023-05-19T04:08:19.599Z,9.50
2023-05-19T04:11:02.191Z,9.50
2023-05-19T04:13:45.277Z,9.50
2023-05-19T04:16:28.953Z,9.50
2023-05-19T04:19:11.954Z,9.50
2023-05-19T04:21:54.933Z,9.50
2023-05-19T04:24:37.602Z,9.60
2023-05-19T04:27:22.024Z,9.60
2023-05-19T04:30:08.570Z,9.60
2023-05-19T04:32:52.199Z,9.60
2023-05-19T04:35:35.099Z,9.60
2023-05-19T04:38:20.158Z,9.70
2023-05-19T04:41:04.625Z,9.60
2023-05-19T04:43:48.417Z,9.70
2023-05-19T04:46:31.160Z,9.70
2023-05-19T04:49:14.559Z,9.70
2023-05-19T04:51:56.891Z,9.80
2023-05-19T04:54:44.400Z,9.80
2023-05-19T04:57:29.027Z,9.90
2023-05-19T05:00:14.284Z,10.00
2023-05-19T05:03:12.433Z,10.00
2023-05-19T05:05:56.907Z,10.00
2023-05-19T05:08:41.240Z,10.10
2023-05-19T05:11:24.498Z,10.00
2023-05-19T05:14:10.218Z,10.10
2023-05-19T05:16:53.728Z,10.10
2023-05-19T05:19:40.456Z,10.20
2023-05-19T05:22:23.661Z,10.10
2023-05-19T05:25:07.506Z,10.10
2023-05-19T05:27:50.917Z,10.10
2023-05-19T05:30:34.905Z,10.20
2023-05-19T05:33:18.286Z,10.20
2023-05-19T05:36:01.291Z,10.20
2023-05-19T05:38:44.913Z,10.20
2023-05-19T05:41:29.362Z,10.30
2023-05-19T05:44:11.960Z,10.30
2023-05-19T05:46:57.216Z,10.40
2023-05-19T05:49:42.148Z,10.50
2023-05-19T05:52:30.397Z,10.50
2023-05-19T05:55:15.949Z,10.50
2023-05-19T05:57:58.886Z,10.50
2023-05-19T06:00:45.449Z,10.60
2023-05-19T06:03:27.945Z,10.60
2023-05-19T06:06:14.327Z,10.60
2023-05-19T06:08:57.056Z,10.70
2023-05-19T06:11:40.283Z,10.70
2023-05-19T06:14:22.760Z,10.70
2023-05-19T06:17:31.584Z,10.60
2023-05-19T06:20:14.474Z,10.70
2023-05-19T06:22:57.235Z,10.70
2023-05-19T06:25:42.357Z,10.70
2023-05-19T06:28:25.613Z,10.80
2023-05-19T06:31:08.364Z,10.90
2023-05-19T06:34:00.869Z,10.90
2023-05-19T06:36:43.686Z,11.00
2023-05-19T06:39:27.132Z,11.00
2023-05-19T06:42:10.146Z,11.10
2023-05-19T06:45:12.657Z,11.10
2023-05-19T06:47:55.675Z,11.00
2023-05-19T06:50:38.447Z,11.10
2023-05-19T06:53:21.428Z,11.10
2023-05-19T06:56:04.578Z,11.10
2023-05-19T06:58:49.353Z,11.20
2023-05-19T07:01:32.061Z,11.20
2023-05-19T07:04:15.398Z,11.20
2023-05-19T07:06:58.778Z,11.20
2023-05-19T07:09:41.405Z,11.20
2023-05-19T07:12:24.770Z,11.20
2023-05-19T07:15:08.000Z,11.10
2023-05-19T07:17:51.367Z,11.10
2023-05-19T07:20:34.041Z,11.10
2023-05-19T07:23:17.446Z,11.00
2023-05-19T07:26:01.790Z,11.00
2023-05-19T07:28:44.452Z,10.90
2023-05-19T07:31:26.875Z,11.00
2023-05-19T07:34:09.626Z,10.90
2023-05-19T07:36:52.235Z,11.00
2023-05-19T07:39:36.025Z,11.00
2023-05-19T07:42:18.348Z,11.00
2023-05-19T07:45:01.340Z,11.00
2023-05-19T07:47:43.749Z,11.10
2023-05-19T07:50:26.879Z,11.10
2023-05-19T07:53:09.155Z,11.10
2023-05-19T07:55:52.018Z,11.10
2023-05-19T07:58:34.397Z,11.00
2023-05-19T08:01:16.951Z,11.10
2023-05-19T08:03:59.559Z,11.10
2023-05-19T08:06:46.410Z,11.20
2023-05-19T08:09:28.566Z,11.20
2023-05-19T08:12:11.520Z,11.20
2023-05-19T08:14:53.921Z,11.30
2023-05-19T08:17:36.515Z,11.20
2023-05-19T08:20:18.859Z,11.30
2023-05-19T08:23:01.497Z,11.40
2023-05-19T08:25:44.670Z,11.40
2023-05-19T08:28:27.329Z,11.40
2023-05-19T08:31:09.716Z,11.40
2023-05-19T08:33:52.738Z,11.40
2023-05-19T08:36:35.623Z,11.40
2023-05-19T08:39:21.237Z,11.50
2023-05-19T08:42:03.782Z,11.50
2023-05-19T08:44:46.582Z,11.60
2023-05-19T08:47:29.618Z,11.60
2023-05-19T08:50:15.390Z,11.80
2023-05-19T08:53:28.912Z,11.90
2023-05-19T08:56:25.382Z,12.00
2023-05-19T08:59:08.908Z,12.10
2023-05-19T09:01:51.910Z,12.10
2023-05-19T09:04:34.846Z,12.10
2023-05-19T09:07:18.976Z,12.10
2023-05-19T09:10:02.151Z,12.10
2023-05-19T09:12:47.059Z,12.20
2023-05-19T09:15:29.364Z,12.20
2023-05-19T09:18:14.440Z,12.20
2023-05-19T09:21:02.404Z,12.20
2023-05-19T09:23:47.720Z,12.10
2023-05-19T09:26:40.756Z,12.20
2023-05-19T09:29:23.728Z,12.20
2023-05-19T09:32:08.712Z,12.30
2023-05-19T09:34:51.226Z,12.20
2023-05-19T09:37:33.620Z,12.10
2023-05-19T09:40:16.728Z,12.10
2023-05-19T09:42:58.954Z,12.10
2023-05-19T09:45:41.450Z,12.10
2023-05-19T09:48:27.883Z,11.90
2023-05-19T09:51:11.004Z,11.90
2023-05-19T09:53:54.462Z,12.00
2023-05-19T09:56:39.568Z,11.90
2023-05-19T09:59:25.220Z,11.80
2023-05-19T10:02:15.964Z,11.80
2023-05-19T10:04:58.705Z,11.90
2023-05-19T10:07:41.602Z,11.90
2023-05-19T10:10:24.004Z,12.00
2023-05-19T10:13:08.040Z,12.00
2023-05-19T10:18:39.957Z,12.10
2023-05-19T10:21:22.604Z,12.10
2023-05-19T10:24:05.612Z,12.00
2023-05-19T10:27:00.068Z,11.90
2023-05-19T10:29:49.176Z,11.90
2023-05-19T10:32:33.300Z,11.90
2023-05-19T10:35:47.774Z,11.90
2023-05-19T10:38:43.092Z,12.00
2023-05-19T10:41:37.199Z,12.10
2023-05-19T10:44:47.151Z,12.10
2023-05-19T10:47:30.536Z,12.20
2023-05-19T10:50:12.916Z,12.30
2023-05-19T10:52:56.790Z,12.40
2023-05-19T10:55:50.063Z,12.60
2023-05-19T10:58:46.277Z,12.50
2023-05-19T11:01:33.633Z,12.40
2023-05-19T11:04:16.688Z,12.40
2023-05-19T11:07:03.741Z,12.50
2023-05-19T11:09:53.328Z,12.40
2023-05-19T11:12:46.012Z,12.30
2023-05-19T11:15:31.358Z,12.20
2023-05-19T11:18:16.337Z,12.10
2023-05-19T11:21:02.690Z,12.10
2023-05-19T11:23:45.089Z,12.10
2023-05-19T11:26:42.261Z,12.10
2023-05-19T11:29:24.734Z,12.30
2023-05-19T11:32:07.541Z,12.30
2023-05-19T11:34:52.688Z,12.20
2023-05-19T11:37:35.924Z,12.10
2023-05-19T11:40:21.604Z,12.00
2023-05-19T11:43:04.116Z,12.00
2023-05-19T11:45:46.979Z,12.00
2023-05-19T11:48:30.270Z,12.10
2023-05-19T11:51:12.620Z,12.10
2023-05-19T11:53:55.881Z,12.20
2023-05-19T11:56:42.516Z,12.20
2023-05-19T11:59:34.984Z,12.30
2023-05-19T12:02:26.007Z,12.30
2023-05-19T12:05:19.226Z,12.30
2023-05-19T12:08:02.553Z,12.30
2023-05-19T12:10:49.016Z,12.30
2023-05-19T12:13:31.585Z,12.30
2023-05-19T12:16:14.482Z,12.40
2023-05-19T12:18:56.991Z,12.40
2023-05-19T12:21:40.231Z,12.40
2023-05-19T12:24:22.976Z,12.60
2023-05-19T12:27:20.194Z,12.70
2023-05-19T12:30:29.387Z,12.80
2023-05-19T12:33:12.734Z,12.70
2023-05-19T12:35:55.400Z,12.70
2023-05-19T12:38:39.682Z,12.80
2023-05-19T12:41:22.954Z,12.90
2023-05-19T12:44:17.618Z,12.90
2023-05-19T12:47:00.002Z,12.90
2023-05-19T12:50:00.939Z,12.90
2023-05-19T12:52:53.287Z,13.00
2023-05-19T12:55:43.385Z,13.00
2023-05-19T12:58:25.675Z,12.90
2023-05-19T13:01:15.326Z,12.80
2023-05-19T13:03:57.930Z,12.80
2023-05-19T13:06:41.899Z,12.60
2023-05-19T13:09:24.273Z,12.60
2023-05-19T13:12:07.136Z,12.50
2023-05-19T13:14:49.410Z,12.60
2023-05-19T13:17:32.104Z,12.60
2023-05-19T13:20:14.545Z,12.60
2023-05-19T13:22:57.518Z,12.70
2023-05-19T13:25:42.165Z,12.80
2023-05-19T13:28:25.235Z,12.90
2023-05-19T13:31:07.556Z,12.90
2023-05-19T13:33:50.170Z,12.90
2023-05-19T13:36:33.423Z,12.90
2023-05-19T13:39:16.038Z,13.00
2023-05-19T13:41:58.697Z,13.00
2023-05-19T13:44:41.399Z,13.10
2023-05-19T13:47:24.382Z,13.30
2023-05-19T13:50:07.625Z,13.40
2023-05-19T13:52:49.961Z,13.30
2023-05-19T13:55:33.343Z,13.30
2023-05-19T13:58:17.096Z,13.20
2023-05-19T14:01:00.270Z,13.30
2023-05-19T14:03:43.057Z,13.30
2023-05-19T14:06:25.739Z,13.20
2023-05-19T14:09:08.318Z,13.20
2023-05-19T14:11:50.968Z,13.00
2023-05-19T14:14:33.252Z,12.80
2023-05-19T14:17:15.970Z,12.80
2023-05-19T14:19:58.698Z,12.70
2023-05-19T14:22:41.951Z,12.80
2023-05-19T14:25:24.386Z,12.90
2023-05-19T14:28:07.047Z,13.00
2023-05-19T14:30:49.613Z,13.10
2023-05-19T14:33:35.017Z,13.10
2023-05-19T14:36:18.448Z,13.20
2023-05-19T14:39:02.025Z,13.20
2023-05-19T14:41:44.321Z,13.20
2023-05-19T14:44:31.927Z,13.20
2023-05-19T14:47:14.507Z,13.00
2023-05-19T14:49:58.264Z,12.90
2023-05-19T14:52:42.002Z,12.90
2023-05-19T14:55:24.981Z,12.80
2023-05-19T14:58:19.978Z,12.80
2023-05-19T15:01:11.549Z,12.80
2023-05-19T15:03:55.313Z,12.90
2023-05-19T15:06:38.377Z,12.90
2023-05-19T15:09:20.754Z,12.90
2023-05-19T15:12:03.808Z,12.80
2023-05-19T15:14:46.717Z,12.90
2023-05-19T15:17:29.392Z,12.90
2023-05-19T15:20:12.743Z,12.90
2023-05-19T15:22:55.697Z,12.90
2023-05-19T15:25:38.396Z,12.90
2023-05-19T15:28:21.271Z,12.80
2023-05-19T15:31:04.650Z,12.80
2023-05-19T15:33:47.398Z,12.70
2023-05-19T15:36:29.973Z,12.70
2023-05-19T15:39:12.941Z,12.70
2023-05-19T15:41:55.318Z,12.80
2023-05-19T15:44:38.598Z,12.80
2023-05-19T15:47:20.988Z,12.90
2023-05-19T15:50:03.789Z,12.90
2023-05-19T15:52:46.868Z,12.90
2023-05-19T15:55:29.623Z,13.00
2023-05-19T15:58:13.816Z,12.90
2023-05-19T16:00:56.669Z,12.80
2023-05-19T16:03:39.046Z,12.80
2023-05-19T16:06:21.848Z,12.80
2023-05-19T16:09:04.100Z,12.80
2023-05-19T16:11:46.645Z,12.70
2023-05-19T16:14:32.083Z,12.60
2023-05-19T16:17:15.378Z,12.60
2023-05-19T16:19:57.765Z,12.70
2023-05-19T16:22:41.133Z,12.60
2023-05-19T16:25:23.885Z,12.60
2023-05-19T16:28:06.642Z,12.70
2023-05-19T16:30:48.969Z,12.70
2023-05-19T16:33:31.504Z,12.70
2023-05-19T16:36:13.819Z,12.60
2023-05-19T16:38:56.450Z,12.60
2023-05-19T16:41:38.716Z,12.60
2023-05-19T16:44:21.263Z,12.60
2023-05-19T16:47:04.225Z,12.60
2023-05-19T16:49:46.873Z,12.50
2023-05-19T16:52:29.309Z,12.40
2023-05-19T16:55:12.227Z,12.50
2023-05-19T16:57:54.494Z,12.50
2023-05-19T17:00:38.115Z,12.50
2023-05-19T17:03:20.681Z,12.50
2023-05-19T17:06:03.555Z,12.40
2023-05-19T17:08:45.952Z,12.40
2023-05-19T17:11:29.312Z,12.40
2023-05-19T17:14:12.009Z,12.40
2023-05-19T17:16:54.821Z,12.40
2023-05-19T17:19:37.007Z,12.40
2023-05-19T17:22:19.602Z,12.40
2023-05-19T17:25:02.049Z,12.30
2023-05-19T17:27:44.583Z,12.40
2023-05-19T17:30:26.891Z,12.40
2023-05-19T17:33:09.561Z,12.40
2023-05-19T17:35:51.878Z,12.40
2023-05-19T17:38:35.171Z,12.40
2023-05-19T17:41:17.404Z,12.30
2023-05-19T17:44:00.011Z,12.30
2023-05-19T17:46:42.359Z,12.30
2023-05-19T17:49:25.812Z,12.30
2023-05-19T17:52:08.902Z,12.30
2023-05-19T17:54:51.985Z,12.30
2023-05-19T17:57:35.911Z,12.30
2023-05-19T18:00:19.473Z,12.30
2023-05-19T18:03:02.745Z,12.30
2023-05-19T18:05:46.069Z,12.30
2023-05-19T18:08:29.101Z,12.30
2023-05-19T18:11:15.970Z,12.30
2023-05-19T18:13:58.893Z,12.30
2023-05-19T18:16:41.550Z,12.30
2023-05-19T18:19:24.319Z,12.30
2023-05-19T18:22:09.584Z,12.30
2023-05-19T18:24:52.270Z,12.20
2023-05-19T18:27:35.193Z,12.20
2023-05-19T18:30:17.773Z,12.20
2023-05-19T18:33:03.905Z,12.20
2023-05-19T18:35:46.676Z,12.20
2023-05-19T18:38:29.599Z,12.20
2023-05-19T18:41:15.215Z,12.20
2023-05-19T18:43:58.383Z,12.10
2023-05-19T18:46:41.053Z,12.10
2023-05-19T18:49:25.110Z,12.10
2023-05-19T18:52:15.407Z,12.10
2023-05-19T18:54:59.640Z,12.10
2023-05-19T18:57:42.117Z,12.10
2023-05-19T19:00:25.932Z,12.10
2023-05-19T19:03:10.342Z,12.10
2023-05-19T19:05:59.791Z,12.10
2023-05-19T19:08:42.165Z,12.10
2023-05-19T19:11:24.950Z,12.10
2023-05-19T19:14:09.155Z,12.10
2023-05-19T19:16:52.180Z,12.00
2023-05-19T19:19:34.658Z,12.00
2023-05-19T19:22:17.498Z,12.00
2023-05-19T19:24:59.900Z,12.00
2023-05-19T19:27:42.523Z,12.00
2023-05-19T19:30:25.618Z,12.00
2023-05-19T19:33:08.223Z,12.10
2023-05-19T19:35:50.665Z,12.00
2023-05-19T19:38:33.383Z,12.10
2023-05-19T19:41:16.277Z,12.10
2023-05-19T19:43:58.966Z,12.10
2023-05-19T19:46:41.451Z,12.10
2023-05-19T19:49:24.173Z,12.00
2023-05-19T19:52:06.713Z,12.00
2023-05-19T19:54:49.398Z,12.00
2023-05-19T19:57:34.264Z,11.90
2023-05-19T20:00:18.298Z,12.00
2023-05-19T20:03:05.057Z,11.90
2023-05-19T20:05:48.874Z,11.90
2023-05-19T20:08:31.313Z,11.90
2023-05-19T20:11:14.252Z,11.90
2023-05-19T20:13:56.658Z,11.90
2023-05-19T20:16:40.939Z,11.90
2023-05-19T20:19:25.650Z,11.90
2023-05-19T20:22:08.657Z,11.90
2023-05-19T20:24:51.062Z,11.90
2023-05-19T20:27:33.979Z,11.90
2023-05-19T20:30:16.417Z,11.90
2023-05-19T20:32:59.161Z,11.90
2023-05-19T20:35:41.553Z,11.80
2023-05-19T20:38:24.331Z,11.80
2023-05-19T20:41:06.682Z,11.90
2023-05-19T20:43:49.438Z,11.80
2023-05-19T20:46:32.056Z,11.90
2023-05-19T20:49:14.886Z,11.80
2023-05-19T20:51:57.590Z,11.90
2023-05-19T20:54:40.460Z,11.90
2023-05-19T20:57:23.050Z,11.90
2023-05-19T21:00:06.441Z,11.90
2023-05-19T21:02:48.864Z,11.80
2023-05-19T21:05:31.871Z,11.80
2023-05-19T21:08:14.469Z,11.80
2023-05-19T21:10:57.405Z,11.90
2023-05-19T21:13:39.751Z,11.90
2023-05-19T21:16:22.953Z,11.90
2023-05-19T21:19:08.848Z,11.80
2023-05-19T21:21:51.645Z,11.80
2023-05-19T21:24:34.060Z,11.80
2023-05-19T21:27:16.702Z,11.90
2023-05-19T21:29:58.997Z,11.90
2023-05-19T21:32:41.665Z,11.90
2023-05-19T21:35:24.032Z,11.90
2023-05-19T21:38:19.627Z,11.90
2023-05-19T21:41:04.823Z,11.90
2023-05-19T21:43:47.635Z,11.90
2023-05-19T21:46:29.943Z,11.90
2023-05-19T21:49:12.689Z,11.80
2023-05-19T21:51:54.955Z,11.90
2023-05-19T21:54:37.645Z,11.80
2023-05-19T21:57:19.885Z,11.80
2023-05-19T22:00:02.499Z,11.80
2023-05-19T22:02:53.953Z,11.80
2023-05-19T22:05:38.165Z,11.80
2023-05-19T22:08:21.020Z,11.80
2023-05-19T22:11:04.457Z,11.80
2023-05-19T22:13:47.138Z,11.80
2023-05-19T22:16:30.882Z,11.80
2023-05-19T22:19:14.713Z,11.80
2023-05-19T22:22:06.005Z,11.80
2023-05-19T22:24:55.381Z,11.80
2023-05-19T22:27:37.877Z,11.80
2023-05-19T22:30:20.150Z,11.80
2023-05-19T22:33:06.505Z,11.80
2023-05-19T22:35:48.798Z,11.80
2023-05-19T22:38:31.299Z,11.80
2023-05-19T22:41:13.508Z,11.80
2023-05-19T22:43:56.208Z,11.80
2023-05-19T22:46:38.560Z,11.80
2023-05-19T22:49:23.199Z,11.80
2023-05-19T22:52:05.776Z,11.80
2023-05-19T22:54:48.367Z,11.80
2023-05-19T22:57:31.933Z,11.80
2023-05-19T23:00:14.668Z,11.80
2023-05-19T23:02:58.378Z,11.80
2023-05-19T23:05:41.071Z,11.70
2023-05-19T23:08:23.346Z,11.80
2023-05-19T23:11:07.328Z,11.80
2023-05-19T23:13:49.513Z,11.80
2023-05-19T23:16:32.214Z,11.80
2023-05-19T23:19:14.628Z,11.80
2023-05-19T23:21:57.433Z,11.80
2023-05-19T23:24:39.612Z,11.80
2023-05-19T23:27:22.130Z,11.80
2023-05-19T23:30:04.795Z,11.80
2023-05-19T23:32:47.409Z,11.90
2023-05-19T23:35:29.701Z,11.90
2023-05-19T23:38:12.894Z,11.80
2023-05-19T23:40:55.178Z,11.80
2023-05-19T23:43:37.995Z,11.90
2023-05-19T23:46:20.743Z,11.80
2023-05-19T23:49:03.516Z,11.90
2023-05-19T23:51:45.746Z,11.90
2023-05-19T23:54:30.362Z,11.80
2023-05-19T23:57:12.563Z,11.80
2023-05-19T23:59:55.253Z,11.90
